createdAt,value
2023-01-30T00:02:10.565Z,57.83
2023-01-30T00:04:39.520Z,59.58
2023-01-30T00:07:08.500Z,53.67
2023-01-30T00:09:37.466Z,64.35
2023-01-30T00:12:06.746Z,50.20
2023-01-30T00:14:35.667Z,58.33
2023-01-30T00:17:04.630Z,61.55
2023-01-30T00:19:33.493Z,94.95
2023-01-30T00:22:02.368Z,57.50
2023-01-30T00:24:31.532Z,99.43
2023-01-30T00:27:00.666Z,64.13
2023-01-30T00:29:29.624Z,72.60
2023-01-30T00:31:58.518Z,75.80
2023-01-30T00:34:27.450Z,74.25
2023-01-30T00:37:07.855Z,69.47
2023-01-30T00:39:37.533Z,81.30
2023-01-30T00:42:25.114Z,69.55
2023-01-30T00:45:12.208Z,67.85
2023-01-30T00:47:41.122Z,68.45
2023-01-30T00:50:10.601Z,65.65
2023-01-30T00:52:39.467Z,84.30
2023-01-30T00:55:09.070Z,69.63
2023-01-30T00:57:38.004Z,73.18
2023-01-30T01:00:07.931Z,57.28
2023-01-30T01:02:37.261Z,49.53
2023-01-30T01:05:06.522Z,52.78
2023-01-30T01:07:35.377Z,60.35
2023-01-30T01:10:04.342Z,50.63
2023-01-30T01:12:33.266Z,57.35
2023-01-30T01:15:02.184Z,48.38
2023-01-30T01:17:31.290Z,59.72
2023-01-30T01:20:00.223Z,50.17
2023-01-30T01:22:29.195Z,54.85
2023-01-30T01:24:58.046Z,57.35
2023-01-30T01:27:27.007Z,59.05
2023-01-30T01:29:56.019Z,50.17
2023-01-30T01:32:25.450Z,62.38
2023-01-30T01:34:54.493Z,45.00
2023-01-30T01:37:23.412Z,51.08
2023-01-30T01:40:10.534Z,55.97
2023-01-30T01:42:41.031Z,56.00
2023-01-30T01:45:17.510Z,54.33
2023-01-30T01:47:55.729Z,53.17
2023-01-30T01:50:46.655Z,53.17
2023-01-30T01:53:19.178Z,51.00
2023-01-30T01:55:51.099Z,40.13
2023-01-30T01:58:43.170Z,49.22
2023-01-30T02:01:12.145Z,40.58
2023-01-30T02:03:46.850Z,39.28
2023-01-30T02:06:17.671Z,40.22
2023-01-30T02:09:01.975Z,44.90
2023-01-30T02:11:51.085Z,41.50
2023-01-30T02:14:21.143Z,46.63
2023-01-30T02:16:50.067Z,41.28
2023-01-30T02:19:47.977Z,39.47
2023-01-30T02:22:39.022Z,31.30
2023-01-30T02:25:26.065Z,36.13
2023-01-30T02:28:10.538Z,32.47
2023-01-30T02:30:57.782Z,33.75
2023-01-30T02:33:27.005Z,35.72
2023-01-30T02:36:08.481Z,36.22
2023-01-30T02:38:40.480Z,28.85
2023-01-30T02:41:26.672Z,38.78
2023-01-30T02:43:55.857Z,35.72
2023-01-30T02:46:55.784Z,30.15
2023-01-30T02:49:36.622Z,37.47
2023-01-30T02:52:08.463Z,36.20
2023-01-30T02:54:37.394Z,33.22
2023-01-30T02:57:17.900Z,40.22
2023-01-30T02:59:50.548Z,43.30
2023-01-30T03:02:51.789Z,42.47
2023-01-30T03:06:02.174Z,38.22
2023-01-30T03:08:46.117Z,32.55
2023-01-30T03:11:15.272Z,34.90
2023-01-30T03:14:03.722Z,45.78
2023-01-30T03:16:41.225Z,38.05
2023-01-30T03:19:14.526Z,35.50
2023-01-30T03:21:47.358Z,38.63
2023-01-30T03:24:17.075Z,53.13
2023-01-30T03:26:51.436Z,40.83
2023-01-30T03:29:20.279Z,31.20
2023-01-30T03:31:49.209Z,37.40
2023-01-30T03:34:18.094Z,37.33
2023-01-30T03:36:50.072Z,44.00
2023-01-30T03:39:19.261Z,40.88
2023-01-30T03:41:48.266Z,47.38
2023-01-30T03:44:17.391Z,40.83
2023-01-30T03:46:46.551Z,39.60
2023-01-30T03:49:15.496Z,36.30
2023-01-30T03:51:44.369Z,37.65
2023-01-30T03:54:13.334Z,37.28
2023-01-30T03:56:42.223Z,50.67
2023-01-30T03:59:11.181Z,40.47
2023-01-30T04:01:40.146Z,41.90
2023-01-30T04:04:09.170Z,40.05
2023-01-30T04:06:38.024Z,37.03
2023-01-30T04:09:07.084Z,47.03
2023-01-30T04:11:36.027Z,45.72
2023-01-30T04:14:04.971Z,38.78
2023-01-30T04:16:33.918Z,36.28
2023-01-30T04:19:02.813Z,36.65
2023-01-30T04:21:31.655Z,37.45
2023-01-30T04:24:00.523Z,40.25
2023-01-30T04:26:29.469Z,42.55
2023-01-30T04:28:58.464Z,39.78
2023-01-30T04:31:27.499Z,33.03
2023-01-30T04:33:56.355Z,40.80
2023-01-30T04:36:25.330Z,41.30
2023-01-30T04:38:54.467Z,52.30
2023-01-30T04:41:23.363Z,52.05
2023-01-30T04:43:52.242Z,39.88
2023-01-30T04:46:21.183Z,40.25
2023-01-30T04:48:50.118Z,38.15
2023-01-30T04:51:19.006Z,32.00
2023-01-30T04:53:47.897Z,39.28
2023-01-30T04:56:16.960Z,39.53
2023-01-30T04:58:45.843Z,33.65
2023-01-30T05:01:17.166Z,38.13
2023-01-30T05:03:46.169Z,37.22
2023-01-30T05:06:15.040Z,41.75
2023-01-30T05:08:46.596Z,34.95
2023-01-30T05:11:15.729Z,35.97
2023-01-30T05:13:45.143Z,35.40
2023-01-30T05:16:14.929Z,42.30
2023-01-30T05:18:44.367Z,40.47
2023-01-30T05:21:16.006Z,33.22
2023-01-30T05:23:45.613Z,34.08
2023-01-30T05:26:16.047Z,32.22
2023-01-30T05:28:45.236Z,34.60
2023-01-30T05:31:15.569Z,29.50
2023-01-30T05:33:47.637Z,33.67
2023-01-30T05:36:18.819Z,37.78
2023-01-30T05:38:48.268Z,32.30
2023-01-30T05:41:18.071Z,31.20
2023-01-30T05:43:50.470Z,33.28
2023-01-30T05:46:19.608Z,29.33
2023-01-30T05:48:48.626Z,36.22
2023-01-30T05:51:19.826Z,31.48
2023-01-30T05:53:49.238Z,31.65
2023-01-30T05:56:18.745Z,35.63
2023-01-30T05:58:57.984Z,29.55
2023-01-30T06:01:27.398Z,34.70
2023-01-30T06:03:57.188Z,32.05
2023-01-30T06:06:26.860Z,44.42
2023-01-30T06:08:57.244Z,36.08
2023-01-30T06:11:26.565Z,34.95
2023-01-30T06:13:55.566Z,48.63
2023-01-30T06:16:24.600Z,32.30
2023-01-30T06:18:53.551Z,50.80
2023-01-30T06:21:22.508Z,50.50
2023-01-30T06:23:51.526Z,47.67
2023-01-30T06:26:20.449Z,47.83
2023-01-30T06:28:50.872Z,45.13
2023-01-30T06:31:20.225Z,33.40
2023-01-30T06:33:50.503Z,28.92
2023-01-30T06:36:19.425Z,33.60
2023-01-30T06:38:49.771Z,31.08
2023-01-30T06:41:18.647Z,33.50
2023-01-30T06:43:47.604Z,30.40
2023-01-30T06:46:16.572Z,29.88
2023-01-30T06:48:45.447Z,29.52
2023-01-30T06:51:14.479Z,30.15
2023-01-30T06:53:43.364Z,34.10
2023-01-30T06:56:12.254Z,34.80
2023-01-30T06:58:41.171Z,31.45
2023-01-30T07:01:10.066Z,33.60
2023-01-30T07:03:39.194Z,26.90
2023-01-30T07:06:08.206Z,33.10
2023-01-30T07:08:37.108Z,41.05
2023-01-30T07:11:07.020Z,35.90
2023-01-30T07:13:35.919Z,33.35
2023-01-30T07:16:04.916Z,29.42
2023-01-30T07:18:33.851Z,28.30
2023-01-30T07:21:02.770Z,30.10
2023-01-30T07:23:31.662Z,34.72
2023-01-30T07:26:00.545Z,33.88
2023-01-30T07:28:29.410Z,32.00
2023-01-30T07:31:01.908Z,34.88
2023-01-30T07:33:30.870Z,34.28
2023-01-30T07:35:59.775Z,33.22
2023-01-30T07:38:28.736Z,32.53
2023-01-30T07:41:02.142Z,27.30
2023-01-30T07:43:31.081Z,30.15
2023-01-30T07:46:03.105Z,34.17
2023-01-30T07:48:32.079Z,29.48
2023-01-30T07:51:00.973Z,31.50
2023-01-30T07:53:29.903Z,34.67
2023-01-30T07:55:58.894Z,35.38
2023-01-30T07:58:30.944Z,29.25
2023-01-30T08:00:59.886Z,28.20
2023-01-30T08:03:32.699Z,32.30
2023-01-30T08:06:01.596Z,37.92
2023-01-30T08:08:31.287Z,31.77
2023-01-30T08:11:00.169Z,29.10
2023-01-30T08:13:29.188Z,31.15
2023-01-30T08:16:05.441Z,27.25
2023-01-30T08:18:37.385Z,30.70
2023-01-30T08:21:08.155Z,35.10
2023-01-30T08:23:37.056Z,27.38
2023-01-30T08:26:07.445Z,28.63
2023-01-30T08:28:36.418Z,29.45
2023-01-30T08:31:10.218Z,29.67
2023-01-30T08:36:08.213Z,25.55
2023-01-30T08:38:37.172Z,30.45
2023-01-30T08:41:09.574Z,31.20
2023-01-30T08:43:38.643Z,31.35
2023-01-30T08:46:07.893Z,27.38
2023-01-30T08:48:49.243Z,31.33
2023-01-30T08:51:19.011Z,27.95
2023-01-30T08:53:47.909Z,31.13
2023-01-30T08:56:17.061Z,29.35
2023-01-30T08:58:47.681Z,29.95
2023-01-30T09:01:19.782Z,30.70
2023-01-30T09:03:49.113Z,32.05
2023-01-30T09:06:18.150Z,33.50
2023-01-30T09:08:47.040Z,27.80
2023-01-30T09:11:16.059Z,29.80
2023-01-30T09:13:47.054Z,29.83
2023-01-30T09:16:17.621Z,30.23
2023-01-30T09:18:46.925Z,30.23
2023-01-30T09:21:16.045Z,26.73
2023-01-30T09:23:44.980Z,28.23
2023-01-30T09:26:14.003Z,26.33
2023-01-30T09:28:43.123Z,27.98
2023-01-30T09:31:12.066Z,31.75
2023-01-30T09:33:40.988Z,26.88
2023-01-30T09:36:10.495Z,37.08
2023-01-30T09:38:39.457Z,37.42
2023-01-30T09:41:48.891Z,29.70
2023-01-30T09:44:46.033Z,29.15
2023-01-30T09:47:20.347Z,34.92
2023-01-30T09:50:04.385Z,32.88
2023-01-30T09:52:37.031Z,31.02
2023-01-30T09:55:20.654Z,26.98
2023-01-30T09:57:50.925Z,61.45
2023-01-30T10:00:25.058Z,32.22
2023-01-30T10:03:15.177Z,32.08
2023-01-30T10:05:54.565Z,27.27
2023-01-30T10:09:01.773Z,23.10
2023-01-30T10:12:03.905Z,28.30
2023-01-30T10:14:47.847Z,33.75
2023-01-30T10:17:26.026Z,32.13
2023-01-30T10:20:06.254Z,28.05
2023-01-30T10:22:44.096Z,30.80
2023-01-30T10:25:39.089Z,26.20
2023-01-30T10:28:28.082Z,27.83
2023-01-30T10:31:17.753Z,28.88
2023-01-30T10:34:01.071Z,31.67
2023-01-30T10:37:01.786Z,36.30
2023-01-30T10:39:55.308Z,26.75
2023-01-30T10:42:44.261Z,36.55
2023-01-30T10:45:26.592Z,27.95
2023-01-30T10:48:11.815Z,26.33
2023-01-30T10:50:54.861Z,30.55
2023-01-30T10:53:34.445Z,29.55
2023-01-30T10:56:31.647Z,30.00
2023-01-30T10:59:22.050Z,28.23
2023-01-30T11:01:57.450Z,32.20
2023-01-30T11:04:44.198Z,27.67
2023-01-30T11:07:13.950Z,34.45
2023-01-30T11:09:48.989Z,25.50
2023-01-30T11:12:18.017Z,29.95
2023-01-30T11:15:00.773Z,27.25
2023-01-30T11:17:43.211Z,36.35
2023-01-30T11:20:25.537Z,28.88
2023-01-30T11:23:07.662Z,35.72
2023-01-30T11:26:10.563Z,31.52
2023-01-30T11:28:47.596Z,36.70
2023-01-30T11:31:41.999Z,30.98
2023-01-30T11:34:25.515Z,26.92
2023-01-30T11:36:54.597Z,35.83
2023-01-30T11:39:29.721Z,27.40
2023-01-30T11:41:59.821Z,36.15
2023-01-30T11:44:34.531Z,28.30
2023-01-30T11:47:15.006Z,35.00
2023-01-30T11:49:57.557Z,31.77
2023-01-30T11:52:40.097Z,49.00
2023-01-30T11:55:14.986Z,32.22
2023-01-30T11:57:48.641Z,60.60
2023-01-30T12:00:24.936Z,40.85
2023-01-30T12:02:56.091Z,30.70
2023-01-30T12:05:34.074Z,33.75
2023-01-30T12:08:39.276Z,48.75
2023-01-30T12:11:28.214Z,33.13
2023-01-30T12:14:20.684Z,40.22
2023-01-30T12:17:14.221Z,104.20
2023-01-30T12:20:06.808Z,71.65
2023-01-30T12:23:03.900Z,73.82
2023-01-30T12:25:56.409Z,85.53
2023-01-30T12:29:15.949Z,57.67
2023-01-30T12:32:00.864Z,53.25
2023-01-30T12:34:29.788Z,40.55
2023-01-30T12:37:19.997Z,56.47
2023-01-30T12:40:03.203Z,56.40
2023-01-30T12:42:50.436Z,59.28
2023-01-30T12:45:27.472Z,64.80
2023-01-30T12:48:23.882Z,66.60
2023-01-30T12:51:05.048Z,93.45
2023-01-30T12:53:49.556Z,145.75
2023-01-30T12:59:02.922Z,150.13
2023-01-30T13:01:34.896Z,114.07
2023-01-30T13:04:32.070Z,90.35
2023-01-30T13:07:07.044Z,80.22
2023-01-30T13:09:41.945Z,75.00
2023-01-30T13:12:35.221Z,80.43
2023-01-30T13:15:09.890Z,64.85
2023-01-30T13:18:07.730Z,73.75
2023-01-30T13:20:54.875Z,73.68
2023-01-30T13:23:26.739Z,71.00
2023-01-30T13:26:20.414Z,58.70
2023-01-30T13:28:52.898Z,66.10
2023-01-30T13:31:28.213Z,65.70
2023-01-30T13:34:21.920Z,77.97
2023-01-30T13:37:15.346Z,69.15
2023-01-30T13:39:53.854Z,73.93
2023-01-30T13:42:43.005Z,74.90
2023-01-30T13:45:25.626Z,96.78
2023-01-30T13:48:18.790Z,97.85
2023-01-30T13:51:09.280Z,71.70
2023-01-30T13:53:49.024Z,79.70
2023-01-30T13:56:39.852Z,75.75
2023-01-30T13:59:37.498Z,77.60
2023-01-30T14:02:08.279Z,69.43
2023-01-30T14:04:43.353Z,79.18
2023-01-30T14:07:22.863Z,67.90
2023-01-30T14:10:16.901Z,72.10
2023-01-30T14:12:52.141Z,73.63
2023-01-30T14:15:26.744Z,68.18
2023-01-30T14:18:08.324Z,75.85
2023-01-30T14:20:45.688Z,62.65
2023-01-30T14:23:22.481Z,75.30
2023-01-30T14:25:57.657Z,68.93
2023-01-30T14:28:27.140Z,64.32
2023-01-30T14:31:04.517Z,65.35
2023-01-30T14:33:53.377Z,69.88
2023-01-30T14:36:35.847Z,88.35
2023-01-30T14:39:42.141Z,66.35
2023-01-30T14:42:28.631Z,62.13
2023-01-30T14:45:18.009Z,68.30
2023-01-30T14:47:48.138Z,70.07
2023-01-30T14:50:24.285Z,70.45
2023-01-30T14:52:57.862Z,70.32
2023-01-30T14:55:31.925Z,80.00
2023-01-30T14:58:04.247Z,76.80
2023-01-30T15:00:36.519Z,77.68
2023-01-30T15:03:10.928Z,83.40
2023-01-30T15:05:45.876Z,84.57
2023-01-30T15:08:23.359Z,74.13
2023-01-30T15:11:28.717Z,70.22
2023-01-30T15:14:09.637Z,77.82
2023-01-30T15:17:07.037Z,86.22
2023-01-30T15:20:08.108Z,78.22
2023-01-30T15:22:58.613Z,87.38
2023-01-30T15:25:32.886Z,89.80
2023-01-30T15:30:58.458Z,80.38
2023-01-30T15:33:32.126Z,83.40
2023-01-30T15:36:02.133Z,82.82
2023-01-30T15:38:37.070Z,81.60
2023-01-30T15:41:08.146Z,80.03
2023-01-30T15:44:20.649Z,76.50
2023-01-30T15:47:00.645Z,72.53
2023-01-30T15:49:54.804Z,71.05
2023-01-30T15:52:30.042Z,68.60
2023-01-30T15:55:00.964Z,73.47
2023-01-30T15:57:34.348Z,66.68
2023-01-30T16:00:05.389Z,62.65
2023-01-30T16:02:38.919Z,75.47
2023-01-30T16:05:25.261Z,93.82
2023-01-30T16:07:57.372Z,65.40
2023-01-30T16:10:29.245Z,70.90
2023-01-30T16:12:59.602Z,92.15
2023-01-30T16:15:34.559Z,75.57
2023-01-30T16:18:39.086Z,75.20
2023-01-30T16:21:12.467Z,86.93
2023-01-30T16:23:54.679Z,72.30
2023-01-30T16:26:24.272Z,81.93
2023-01-30T16:29:00.678Z,74.50
2023-01-30T16:31:34.806Z,80.15
2023-01-30T16:34:04.268Z,80.60
2023-01-30T16:36:44.467Z,77.40
2023-01-30T16:39:34.347Z,72.93
2023-01-30T16:42:06.247Z,76.50
2023-01-30T16:44:35.116Z,79.43
2023-01-30T16:47:13.530Z,82.82
2023-01-30T16:49:47.281Z,75.18
2023-01-30T16:52:26.381Z,74.25
2023-01-30T16:54:57.775Z,85.05
2023-01-30T16:57:32.659Z,78.90
2023-01-30T17:00:02.306Z,93.88
2023-01-30T17:02:41.509Z,85.50
2023-01-30T17:05:40.697Z,76.30
2023-01-30T17:08:32.042Z,77.93
2023-01-30T17:11:02.983Z,83.68
2023-01-30T17:13:43.146Z,79.68
2023-01-30T17:16:35.961Z,69.63
2023-01-30T17:19:05.301Z,84.20
2023-01-30T17:21:45.393Z,82.68
2023-01-30T17:24:23.450Z,84.82
2023-01-30T17:27:01.339Z,80.82
2023-01-30T17:29:49.126Z,85.05
2023-01-30T17:32:18.681Z,78.78
2023-01-30T17:34:47.855Z,73.03
2023-01-30T17:37:25.493Z,72.22
2023-01-30T17:39:54.358Z,73.75
2023-01-30T17:42:23.259Z,77.50
2023-01-30T17:44:52.240Z,73.85
2023-01-30T17:47:22.247Z,73.13
2023-01-30T17:49:51.147Z,72.45
2023-01-30T17:52:20.177Z,72.53
2023-01-30T17:54:49.109Z,64.45
2023-01-30T17:57:18.282Z,69.75
2023-01-30T17:59:48.087Z,66.00
2023-01-30T18:02:17.038Z,59.00
2023-01-30T18:04:45.915Z,56.83
2023-01-30T18:07:17.703Z,57.28
2023-01-30T18:09:46.590Z,65.93
2023-01-30T18:12:15.489Z,57.00
2023-01-30T18:14:44.388Z,55.72
2023-01-30T18:17:13.660Z,48.47
2023-01-30T18:19:42.631Z,52.83
2023-01-30T18:22:11.624Z,48.45
2023-01-30T18:24:40.477Z,56.88
2023-01-30T18:27:09.389Z,51.25
2023-01-30T18:29:38.233Z,50.28
2023-01-30T18:32:07.277Z,58.33
2023-01-30T18:34:36.521Z,61.47
2023-01-30T18:37:05.435Z,56.45
2023-01-30T18:39:34.587Z,50.80
2023-01-30T18:42:04.201Z,54.45
2023-01-30T18:44:33.389Z,56.30
2023-01-30T18:47:02.291Z,51.15
2023-01-30T18:49:32.143Z,50.50
2023-01-30T18:52:01.020Z,50.10
2023-01-30T18:54:29.937Z,50.83
2023-01-30T18:56:58.906Z,53.95
2023-01-30T18:59:27.885Z,52.75
2023-01-30T19:01:56.743Z,47.95
2023-01-30T19:04:25.585Z,50.08
2023-01-30T19:06:55.951Z,57.65
2023-01-30T19:09:25.012Z,52.17
2023-01-30T19:12:12.153Z,53.10
2023-01-30T19:14:41.113Z,62.17
2023-01-30T19:17:10.118Z,58.45
2023-01-30T19:19:39.088Z,56.65
2023-01-30T19:22:07.975Z,58.72
2023-01-30T19:24:36.883Z,54.92
2023-01-30T19:27:06.662Z,62.92
2023-01-30T19:29:35.527Z,58.20
2023-01-30T19:32:04.607Z,58.90
2023-01-30T19:34:33.560Z,59.58
2023-01-30T19:37:02.442Z,67.78
2023-01-30T19:39:31.467Z,58.13
2023-01-30T19:42:00.355Z,51.85
2023-01-30T19:44:29.356Z,60.30
2023-01-30T19:46:58.283Z,53.45
2023-01-30T19:49:27.205Z,59.58
2023-01-30T19:51:57.941Z,60.83
2023-01-30T19:54:26.852Z,55.53
2023-01-30T19:56:55.718Z,62.10
2023-01-30T19:59:28.902Z,57.40
2023-01-30T20:01:57.809Z,56.75
2023-01-30T20:04:26.886Z,61.30
2023-01-30T20:06:55.771Z,58.90
2023-01-30T20:09:24.644Z,58.17
2023-01-30T20:11:53.533Z,59.25
2023-01-30T20:14:22.458Z,55.13
2023-01-30T20:16:52.180Z,59.33
2023-01-30T20:19:21.056Z,59.10
2023-01-30T20:21:50.043Z,55.10
2023-01-30T20:24:18.988Z,55.88
2023-01-30T20:26:48.647Z,52.80
2023-01-30T20:29:19.033Z,56.42
2023-01-30T20:31:48.028Z,53.58
2023-01-30T20:34:16.946Z,46.25
2023-01-30T20:36:45.836Z,52.28
2023-01-30T20:39:16.026Z,53.33
2023-01-30T20:41:45.307Z,52.53
2023-01-30T20:44:15.604Z,60.95
2023-01-30T20:46:46.953Z,59.15
2023-01-30T20:49:21.196Z,62.83
2023-01-30T20:51:52.321Z,68.47
2023-01-30T20:54:23.016Z,65.80
2023-01-30T20:56:54.681Z,91.93
2023-01-30T20:59:25.727Z,79.53
2023-01-30T21:01:55.418Z,75.60
2023-01-30T21:04:25.653Z,76.47
2023-01-30T21:06:54.738Z,75.15
2023-01-30T21:09:25.236Z,75.78
2023-01-30T21:11:54.412Z,79.50
2023-01-30T21:14:25.635Z,75.43
2023-01-30T21:16:55.508Z,81.82
2023-01-30T21:19:24.601Z,77.97
2023-01-30T21:21:56.121Z,72.40
2023-01-30T21:24:30.469Z,74.43
2023-01-30T21:29:29.701Z,74.35
2023-01-30T21:31:59.892Z,69.45
2023-01-30T21:34:28.854Z,81.97
2023-01-30T21:37:29.998Z,80.43
2023-01-30T21:40:17.276Z,76.07
2023-01-30T21:43:04.803Z,79.95
2023-01-30T21:45:33.719Z,77.07
2023-01-30T21:48:02.666Z,71.72
2023-01-30T21:50:31.567Z,73.05
2023-01-30T21:53:00.583Z,74.03
2023-01-30T21:55:29.618Z,69.80
2023-01-30T21:57:59.021Z,76.35
2023-01-30T22:00:27.954Z,82.93
2023-01-30T22:02:56.803Z,76.90
2023-01-30T22:05:25.748Z,97.38
2023-01-30T22:07:54.689Z,85.65
2023-01-30T22:10:23.534Z,92.55
2023-01-30T22:12:52.403Z,133.07
2023-01-30T22:15:24.185Z,136.45
2023-01-30T22:17:53.161Z,133.02
2023-01-30T22:20:22.133Z,135.35
2023-01-30T22:22:51.044Z,133.05
2023-01-30T22:25:20.169Z,121.90
2023-01-30T22:27:49.230Z,126.47
2023-01-30T22:30:18.905Z,118.90
2023-01-30T22:32:47.896Z,100.47
2023-01-30T22:35:16.924Z,94.55
2023-01-30T22:37:46.109Z,92.70
2023-01-30T22:40:15.083Z,91.85
2023-01-30T22:42:49.424Z,110.38
2023-01-30T22:45:18.986Z,96.78
2023-01-30T22:47:48.563Z,80.55
2023-01-30T22:50:17.685Z,79.70
2023-01-30T22:52:47.585Z,87.15
2023-01-30T22:55:19.653Z,90.25
2023-01-30T22:57:50.416Z,87.93
2023-01-30T23:00:19.655Z,94.00
2023-01-30T23:02:51.714Z,80.82
2023-01-30T23:05:20.872Z,62.15
2023-01-30T23:07:49.995Z,70.00
2023-01-30T23:10:21.959Z,76.80
2023-01-30T23:13:10.675Z,84.45
2023-01-30T23:15:43.904Z,82.13
2023-01-30T23:18:30.853Z,97.03
2023-01-30T23:21:00.255Z,95.63
2023-01-30T23:23:29.554Z,130.85
2023-01-30T23:25:58.450Z,143.73
2023-01-30T23:28:27.354Z,157.57
2023-01-30T23:31:00.221Z,162.82
2023-01-30T23:33:29.097Z,161.32
2023-01-30T23:36:03.550Z,127.70
2023-01-30T23:41:16.239Z,108.88
2023-01-30T23:43:46.564Z,107.63
2023-01-30T23:46:33.391Z,96.60
2023-01-30T23:49:07.939Z,101.25
2023-01-30T23:51:38.720Z,95.30
2023-01-30T23:54:08.204Z,98.88
2023-01-30T23:56:39.847Z,103.95
2023-01-30T23:59:09.341Z,110.03
